createdAt,value
2023-09-06T00:00:31.242Z,34.46
2023-09-06T00:03:03.778Z,34.45
2023-09-06T00:05:34.301Z,34.44
2023-09-06T00:08:05.817Z,34.43
2023-09-06T00:10:36.337Z,34.41
2023-09-06T00:13:07.737Z,34.41
2023-09-06T00:15:39.271Z,34.39
2023-09-06T00:18:12.050Z,34.38
2023-09-06T00:20:42.133Z,34.37
2023-09-06T00:23:14.283Z,34.36
2023-09-06T00:25:45.305Z,34.35
2023-09-06T00:28:16.139Z,34.34
2023-09-06T00:30:47.451Z,34.33
2023-09-06T00:33:20.509Z,34.33
2023-09-06T00:35:51.026Z,34.31
2023-09-06T00:38:23.764Z,34.30
2023-09-06T00:40:54.761Z,34.28
2023-09-06T00:43:25.074Z,34.27
2023-09-06T00:45:56.521Z,34.26
2023-09-06T00:48:31.296Z,34.26
2023-09-06T00:51:02.301Z,34.24
2023-09-06T00:53:35.201Z,34.24
2023-09-06T00:56:10.440Z,34.23
2023-09-06T00:58:43.398Z,34.22
2023-09-06T01:01:13.384Z,34.22
2023-09-06T01:03:44.622Z,34.22
2023-09-06T01:06:22.662Z,34.21
2023-09-06T01:09:00.697Z,34.20
2023-09-06T01:11:31.078Z,34.18
2023-09-06T01:14:04.222Z,34.18
2023-09-06T01:16:41.375Z,34.16
2023-09-06T01:19:18.340Z,34.17
2023-09-06T01:22:01.974Z,34.16
2023-09-06T01:24:34.438Z,34.13
2023-09-06T01:27:06.647Z,34.14
2023-09-06T01:29:37.951Z,34.13
2023-09-06T01:32:09.465Z,34.13
2023-09-06T01:34:39.204Z,34.09
2023-09-06T01:37:09.688Z,34.10
2023-09-06T01:39:42.489Z,34.09
2023-09-06T01:42:12.756Z,34.08
2023-09-06T01:44:42.947Z,34.07
2023-09-06T01:47:14.174Z,34.06
2023-09-06T01:49:46.838Z,34.06
2023-09-06T01:52:17.027Z,34.05
2023-09-06T01:54:49.039Z,34.04
2023-09-06T01:57:19.526Z,34.04
2023-09-06T01:59:52.095Z,34.03
2023-09-06T02:02:22.303Z,34.02
2023-09-06T02:04:52.666Z,34.00
2023-09-06T02:07:22.951Z,33.99
2023-09-06T02:09:55.222Z,34.00
2023-09-06T02:12:25.456Z,33.99
2023-09-06T02:14:57.718Z,33.98
2023-09-06T02:17:28.673Z,33.97
2023-09-06T02:19:58.100Z,33.96
2023-09-06T02:22:28.486Z,33.95
2023-09-06T02:25:01.694Z,33.96
2023-09-06T02:27:33.284Z,33.94
2023-09-06T02:30:05.241Z,33.94
2023-09-06T02:32:35.851Z,33.93
2023-09-06T02:35:07.788Z,33.92
2023-09-06T02:37:38.416Z,33.92
2023-09-06T02:40:15.453Z,33.92
2023-09-06T02:42:45.784Z,33.90
2023-09-06T02:45:28.001Z,33.90
2023-09-06T02:47:57.610Z,33.88
2023-09-06T02:50:30.460Z,33.87
2023-09-06T02:53:03.156Z,33.87
2023-09-06T02:55:36.828Z,33.87
2023-09-06T02:58:07.455Z,33.86
2023-09-06T03:00:42.075Z,33.87
2023-09-06T03:03:17.613Z,33.86
2023-09-06T03:05:48.617Z,33.85
2023-09-06T03:08:19.086Z,33.85
2023-09-06T03:10:55.743Z,33.85
2023-09-06T03:13:25.457Z,33.84
2023-09-06T03:15:55.840Z,33.83
2023-09-06T03:18:26.116Z,33.83
2023-09-06T03:20:56.932Z,33.82
2023-09-06T03:23:27.205Z,33.83
2023-09-06T03:25:59.705Z,33.82
2023-09-06T03:28:30.635Z,33.82
2023-09-06T03:31:01.443Z,33.81
2023-09-06T03:33:33.011Z,33.81
2023-09-06T03:36:03.569Z,33.81
2023-09-06T03:38:33.435Z,33.80
2023-09-06T03:41:08.989Z,33.81
2023-09-06T03:43:40.016Z,33.81
2023-09-06T03:46:14.695Z,33.81
2023-09-06T03:48:47.288Z,33.81
2023-09-06T03:51:17.912Z,33.82
2023-09-06T03:53:49.239Z,33.82
2023-09-06T03:56:21.105Z,33.83
2023-09-06T03:58:54.831Z,33.83
2023-09-06T04:01:27.779Z,33.83
2023-09-06T04:03:58.102Z,33.83
2023-09-06T04:06:30.725Z,33.86
2023-09-06T04:09:00.860Z,33.87
2023-09-06T04:11:32.485Z,33.89
2023-09-06T04:14:02.875Z,33.88
2023-09-06T04:16:33.062Z,33.90
2023-09-06T04:19:03.346Z,33.90
2023-09-06T04:21:33.301Z,33.91
2023-09-06T04:24:03.644Z,33.93
2023-09-06T04:26:36.476Z,33.94
2023-09-06T04:29:06.769Z,33.94
2023-09-06T04:31:37.185Z,33.97
2023-09-06T04:34:06.974Z,33.99
2023-09-06T04:36:38.888Z,34.01
2023-09-06T04:39:11.442Z,34.02
2023-09-06T04:41:43.514Z,34.05
2023-09-06T04:44:13.352Z,34.06
2023-09-06T04:46:43.696Z,34.08
2023-09-06T04:49:13.828Z,34.11
2023-09-06T04:51:44.323Z,34.13
2023-09-06T04:54:13.732Z,34.16
2023-09-06T04:56:46.072Z,34.19
2023-09-06T04:59:16.576Z,34.21
2023-09-06T05:01:46.858Z,34.23
2023-09-06T05:04:17.430Z,34.27
2023-09-06T05:06:47.892Z,34.29
2023-09-06T05:09:19.208Z,34.32
2023-09-06T05:11:50.611Z,34.35
2023-09-06T05:14:20.800Z,34.36
2023-09-06T05:16:50.871Z,34.39
2023-09-06T05:19:22.867Z,34.41
2023-09-06T05:21:53.253Z,34.44
2023-09-06T05:24:22.956Z,34.46
2023-09-06T05:26:55.407Z,34.49
2023-09-06T05:29:25.684Z,34.51
2023-09-06T05:31:56.217Z,34.55
2023-09-06T05:34:26.671Z,34.56
2023-09-06T05:36:56.880Z,34.58
2023-09-06T05:39:27.677Z,34.60
2023-09-06T05:41:59.629Z,34.62
2023-09-06T05:44:30.131Z,34.64
2023-09-06T05:46:59.601Z,34.66
2023-09-06T05:49:30.245Z,34.67
2023-09-06T05:52:00.468Z,34.70
2023-09-06T05:54:30.830Z,34.73
2023-09-06T05:57:06.097Z,34.74
2023-09-06T05:59:36.833Z,34.75
2023-09-06T06:02:07.538Z,34.77
2023-09-06T06:04:38.629Z,34.78
2023-09-06T06:07:08.636Z,34.81
2023-09-06T06:09:38.779Z,34.83
2023-09-06T06:12:11.695Z,34.85
2023-09-06T06:14:41.946Z,34.87
2023-09-06T06:17:12.813Z,34.88
2023-09-06T06:19:43.174Z,34.90
2023-09-06T06:22:13.655Z,34.92
2023-09-06T06:24:46.950Z,34.95
2023-09-06T06:27:18.686Z,34.97
2023-09-06T06:29:48.434Z,34.99
2023-09-06T06:32:19.314Z,35.02
2023-09-06T06:34:52.237Z,35.03
2023-09-06T06:37:21.982Z,35.07
2023-09-06T06:39:52.520Z,35.10
2023-09-06T06:42:25.290Z,35.13
2023-09-06T06:44:56.258Z,35.15
2023-09-06T06:47:25.940Z,35.17
2023-09-06T06:49:57.645Z,35.19
2023-09-06T06:52:32.447Z,35.21
2023-09-06T06:55:05.451Z,35.23
2023-09-06T06:57:37.804Z,35.25
2023-09-06T07:00:12.961Z,35.27
2023-09-06T07:02:42.578Z,35.28
2023-09-06T07:05:15.677Z,35.30
2023-09-06T07:07:45.578Z,35.30
2023-09-06T07:10:16.786Z,35.32
2023-09-06T07:12:48.054Z,35.34
2023-09-06T07:15:19.118Z,35.34
2023-09-06T07:17:49.572Z,35.36
2023-09-06T07:20:20.563Z,35.37
2023-09-06T07:22:51.007Z,35.38
2023-09-06T07:25:21.296Z,35.40
2023-09-06T07:27:53.962Z,35.42
2023-09-06T07:30:24.488Z,35.43
2023-09-06T07:32:54.783Z,35.43
2023-09-06T07:35:25.192Z,35.45
2023-09-06T07:37:56.313Z,35.48
2023-09-06T07:40:26.653Z,35.47
2023-09-06T07:42:58.644Z,35.49
2023-09-06T07:45:29.005Z,35.51
2023-09-06T07:47:58.978Z,35.54
2023-09-06T07:50:29.815Z,35.56
2023-09-06T07:53:00.156Z,35.57
2023-09-06T07:55:29.655Z,35.60
2023-09-06T07:58:01.365Z,35.64
2023-09-06T08:00:32.800Z,35.67
2023-09-06T08:03:03.257Z,35.69
2023-09-06T08:05:34.313Z,35.73
2023-09-06T08:08:04.627Z,35.75
2023-09-06T08:10:34.993Z,35.81
2023-09-06T08:13:06.756Z,35.87
2023-09-06T08:15:38.995Z,35.94
2023-09-06T08:18:10.332Z,36.00
2023-09-06T08:20:40.818Z,36.07
2023-09-06T08:23:12.363Z,36.15
2023-09-06T08:25:42.025Z,36.22
2023-09-06T08:28:16.147Z,36.29
2023-09-06T08:30:48.971Z,36.36
2023-09-06T08:33:19.049Z,36.43
2023-09-06T08:35:49.350Z,36.49
2023-09-06T08:38:19.616Z,36.55
2023-09-06T08:40:50.074Z,36.62
2023-09-06T08:43:23.592Z,36.70
2023-09-06T08:45:58.811Z,36.76
2023-09-06T08:48:31.163Z,36.82
2023-09-06T08:51:05.633Z,36.87
2023-09-06T08:53:37.406Z,36.92
2023-09-06T08:56:10.296Z,36.97
2023-09-06T08:58:43.058Z,36.99
2023-09-06T09:01:13.621Z,37.01
2023-09-06T09:03:44.333Z,37.03
2023-09-06T09:06:14.757Z,37.04
2023-09-06T09:08:44.826Z,37.03
2023-09-06T09:11:16.835Z,37.03
2023-09-06T09:13:49.429Z,37.04
2023-09-06T09:16:20.904Z,37.03
2023-09-06T09:18:51.340Z,37.02
2023-09-06T09:21:21.946Z,37.01
2023-09-06T09:23:57.256Z,37.02
2023-09-06T09:26:27.596Z,37.01
2023-09-06T09:29:05.005Z,36.99
2023-09-06T09:31:35.252Z,36.99
2023-09-06T09:34:06.296Z,36.99
2023-09-06T09:36:38.270Z,36.98
2023-09-06T09:39:10.855Z,36.98
2023-09-06T09:41:58.556Z,36.97
2023-09-06T09:44:31.342Z,36.97
2023-09-06T09:47:38.023Z,36.98
2023-09-06T09:50:08.551Z,36.95
2023-09-06T09:52:39.764Z,36.95
2023-09-06T09:55:10.846Z,36.97
2023-09-06T09:57:42.366Z,36.96
2023-09-06T10:00:17.186Z,36.98
2023-09-06T10:02:50.398Z,36.97
2023-09-06T10:05:23.463Z,36.97
2023-09-06T10:07:54.580Z,36.97
2023-09-06T10:10:26.077Z,36.97
2023-09-06T10:12:57.767Z,36.94
2023-09-06T10:15:30.718Z,36.94
2023-09-06T10:18:02.421Z,36.93
2023-09-06T10:20:36.382Z,36.94
2023-09-06T10:23:10.309Z,36.94
2023-09-06T10:25:45.858Z,36.95
2023-09-06T10:28:18.337Z,36.95
2023-09-06T10:31:09.656Z,36.96
2023-09-06T10:34:00.318Z,36.94
2023-09-06T10:36:31.856Z,36.92
2023-09-06T10:39:18.224Z,36.94
2023-09-06T10:42:31.033Z,36.90
2023-09-06T10:45:14.468Z,36.91
2023-09-06T10:47:46.370Z,36.91
2023-09-06T10:50:23.309Z,36.91
2023-09-06T10:52:56.383Z,36.91
2023-09-06T10:55:28.300Z,36.92
2023-09-06T10:58:10.255Z,36.92
2023-09-06T11:00:42.490Z,36.93
2023-09-06T11:03:24.435Z,36.94
2023-09-06T11:06:00.606Z,36.94
2023-09-06T11:08:34.367Z,36.94
2023-09-06T11:11:09.990Z,36.95
2023-09-06T11:13:41.360Z,36.96
2023-09-06T11:16:17.543Z,36.96
2023-09-06T11:18:51.921Z,36.96
2023-09-06T11:21:24.683Z,36.94
2023-09-06T11:23:57.945Z,36.93
2023-09-06T11:26:29.126Z,36.92
2023-09-06T11:29:07.037Z,36.91
2023-09-06T11:31:40.168Z,36.89
2023-09-06T11:34:18.549Z,36.88
2023-09-06T11:36:58.616Z,36.88
2023-09-06T11:39:30.853Z,36.86
2023-09-06T11:42:02.343Z,36.87
2023-09-06T11:44:33.688Z,36.86
2023-09-06T11:47:08.315Z,36.87
2023-09-06T11:49:42.169Z,36.87
2023-09-06T11:52:11.784Z,36.87
2023-09-06T11:54:41.886Z,36.88
2023-09-06T11:57:25.532Z,36.89
2023-09-06T11:59:59.821Z,36.90
2023-09-06T12:02:36.868Z,36.90
2023-09-06T12:05:13.007Z,36.92
2023-09-06T12:07:44.835Z,36.91
2023-09-06T12:10:22.565Z,36.93
2023-09-06T12:12:52.991Z,36.93
2023-09-06T12:15:23.580Z,36.94
2023-09-06T12:17:54.611Z,36.95
2023-09-06T12:20:29.532Z,36.95
2023-09-06T12:23:01.899Z,36.95
2023-09-06T12:25:32.033Z,36.95
2023-09-06T12:28:03.147Z,36.95
2023-09-06T12:30:33.913Z,36.94
2023-09-06T12:33:05.132Z,36.95
2023-09-06T12:35:40.128Z,36.94
2023-09-06T12:38:10.640Z,36.94
2023-09-06T12:40:41.318Z,36.95
2023-09-06T12:43:11.105Z,36.93
2023-09-06T12:45:41.361Z,36.94
2023-09-06T12:48:11.804Z,36.94
2023-09-06T12:50:44.042Z,36.94
2023-09-06T12:53:14.920Z,36.93
2023-09-06T12:55:45.291Z,36.93
2023-09-06T12:58:15.698Z,36.93
2023-09-06T13:00:45.902Z,36.91
2023-09-06T13:03:16.913Z,36.91
2023-09-06T13:05:50.748Z,36.91
2023-09-06T13:08:21.660Z,36.90
2023-09-06T13:10:52.048Z,36.89
2023-09-06T13:13:21.741Z,36.88
2023-09-06T13:15:51.859Z,36.88
2023-09-06T13:18:22.761Z,36.87
2023-09-06T13:20:58.837Z,36.88
2023-09-06T13:23:29.702Z,36.87
2023-09-06T13:26:10.693Z,36.87
2023-09-06T13:28:41.251Z,36.86
2023-09-06T13:31:12.758Z,36.86
2023-09-06T13:33:44.202Z,36.86
2023-09-06T13:36:16.933Z,36.86
2023-09-06T13:38:48.484Z,36.84
2023-09-06T13:41:18.808Z,36.84
2023-09-06T13:43:49.194Z,36.83
2023-09-06T13:46:19.476Z,36.83
2023-09-06T13:48:50.188Z,36.81
2023-09-06T13:51:22.769Z,36.81
2023-09-06T13:53:54.088Z,36.80
2023-09-06T13:56:24.794Z,36.78
2023-09-06T13:58:54.506Z,36.77
2023-09-06T14:01:25.361Z,36.76
2023-09-06T14:03:55.627Z,36.75
2023-09-06T14:06:28.145Z,36.74
2023-09-06T14:08:58.119Z,36.72
2023-09-06T14:11:27.806Z,36.70
2023-09-06T14:13:58.242Z,36.70
2023-09-06T14:16:28.514Z,36.68
2023-09-06T14:18:58.991Z,36.67
2023-09-06T14:21:31.948Z,36.66
2023-09-06T14:24:02.899Z,36.64
2023-09-06T14:26:33.237Z,36.63
2023-09-06T14:29:03.409Z,36.62
2023-09-06T14:31:33.080Z,36.61
2023-09-06T14:34:03.460Z,36.60
2023-09-06T14:36:35.420Z,36.60
2023-09-06T14:39:09.330Z,36.58
2023-09-06T14:41:40.252Z,36.57
2023-09-06T14:44:11.232Z,36.54
2023-09-06T14:46:41.640Z,36.55
2023-09-06T14:49:12.093Z,36.52
2023-09-06T14:51:44.857Z,36.51
2023-09-06T14:54:14.982Z,36.49
2023-09-06T14:56:45.483Z,36.48
2023-09-06T14:59:16.201Z,36.46
2023-09-06T15:01:46.663Z,36.45
2023-09-06T15:04:17.193Z,36.44
2023-09-06T15:06:59.141Z,36.43
2023-09-06T15:09:29.570Z,36.41
2023-09-06T15:12:02.608Z,36.40
2023-09-06T15:14:33.514Z,36.36
2023-09-06T15:17:04.531Z,36.35
2023-09-06T15:19:34.822Z,36.34
2023-09-06T15:22:07.200Z,36.31
2023-09-06T15:24:37.895Z,36.30
2023-09-06T15:27:08.756Z,36.27
2023-09-06T15:29:44.222Z,36.26
2023-09-06T15:32:14.992Z,36.24
2023-09-06T15:34:45.536Z,36.23
2023-09-06T15:37:17.499Z,36.21
2023-09-06T15:39:47.629Z,36.19
2023-09-06T15:42:18.106Z,36.16
2023-09-06T15:44:47.873Z,36.15
2023-09-06T15:47:18.243Z,36.14
2023-09-06T15:49:49.297Z,36.12
2023-09-06T15:52:22.556Z,36.11
2023-09-06T15:54:52.799Z,36.08
2023-09-06T15:57:23.149Z,36.07
2023-09-06T15:59:52.972Z,36.05
2023-09-06T16:02:23.844Z,36.03
2023-09-06T16:04:54.332Z,36.01
2023-09-06T16:07:27.582Z,35.99
2023-09-06T16:09:58.168Z,35.98
2023-09-06T16:12:28.659Z,35.95
2023-09-06T16:14:58.273Z,35.94
2023-09-06T16:17:29.271Z,35.93
2023-09-06T16:19:58.890Z,35.91
2023-09-06T16:22:31.353Z,35.90
2023-09-06T16:25:04.483Z,35.87
2023-09-06T16:27:34.739Z,35.86
2023-09-06T16:30:07.357Z,35.83
2023-09-06T16:32:38.375Z,35.83
2023-09-06T16:35:10.653Z,35.82
2023-09-06T16:37:43.484Z,35.78
2023-09-06T16:40:15.289Z,35.76
2023-09-06T16:42:45.573Z,35.75
2023-09-06T16:45:16.329Z,35.72
2023-09-06T16:47:47.558Z,35.71
2023-09-06T16:50:18.488Z,35.70
2023-09-06T16:52:51.633Z,35.68
2023-09-06T16:55:22.565Z,35.66
2023-09-06T16:57:55.835Z,35.66
2023-09-06T17:00:28.308Z,35.64
2023-09-06T17:02:58.707Z,35.63
2023-09-06T17:05:28.941Z,35.61
2023-09-06T17:08:01.381Z,35.61
2023-09-06T17:10:31.650Z,35.60
2023-09-06T17:13:02.568Z,35.58
2023-09-06T17:15:33.600Z,35.58
2023-09-06T17:18:03.936Z,35.57
2023-09-06T17:20:34.369Z,35.56
2023-09-06T17:23:07.737Z,35.55
2023-09-06T17:25:39.607Z,35.53
2023-09-06T17:28:12.562Z,35.52
2023-09-06T17:30:42.787Z,35.51
2023-09-06T17:33:16.720Z,35.52
2023-09-06T17:35:49.100Z,35.49
2023-09-06T17:38:22.766Z,35.47
2023-09-06T17:40:54.886Z,35.47
2023-09-06T17:43:27.485Z,35.46
2023-09-06T17:46:01.046Z,35.44
2023-09-06T17:48:31.990Z,35.42
2023-09-06T17:51:10.066Z,35.42
2023-09-06T17:53:42.846Z,35.41
2023-09-06T17:56:17.177Z,35.41
2023-09-06T17:58:51.091Z,35.40
2023-09-06T18:01:20.857Z,35.38
2023-09-06T18:03:53.457Z,35.38
2023-09-06T18:06:26.339Z,35.36
2023-09-06T18:08:59.350Z,35.37
2023-09-06T18:11:29.882Z,35.36
2023-09-06T18:14:00.346Z,35.35
2023-09-06T18:16:30.983Z,35.36
2023-09-06T18:19:01.469Z,35.34
2023-09-06T18:21:31.624Z,35.34
2023-09-06T18:24:06.302Z,35.34
2023-09-06T18:26:36.831Z,35.34
2023-09-06T18:29:06.604Z,35.33
2023-09-06T18:31:38.279Z,35.32
2023-09-06T18:34:12.065Z,35.31
2023-09-06T18:36:43.021Z,35.30
2023-09-06T18:39:20.144Z,35.30
2023-09-06T18:41:50.874Z,35.29
2023-09-06T18:44:21.189Z,35.29
2023-09-06T18:46:51.316Z,35.28
2023-09-06T18:49:21.220Z,35.27
2023-09-06T18:51:51.068Z,35.27
2023-09-06T18:54:23.423Z,35.27
2023-09-06T18:56:53.124Z,35.26
2023-09-06T18:59:23.558Z,35.25
2023-09-06T19:01:53.187Z,35.24
2023-09-06T19:04:24.827Z,35.24
2023-09-06T19:06:56.440Z,35.24
2023-09-06T19:09:29.433Z,35.23
2023-09-06T19:11:59.630Z,35.22
2023-09-06T19:14:29.788Z,35.22
2023-09-06T19:17:00.636Z,35.22
2023-09-06T19:19:34.486Z,35.22
2023-09-06T19:22:05.655Z,35.22
2023-09-06T19:24:38.164Z,35.22
2023-09-06T19:27:08.364Z,35.22
2023-09-06T19:29:38.881Z,35.21
2023-09-06T19:32:09.847Z,35.22
2023-09-06T19:34:39.557Z,35.20
2023-09-06T19:37:10.022Z,35.20
2023-09-06T19:39:42.633Z,35.20
2023-09-06T19:42:13.265Z,35.18
2023-09-06T19:44:45.244Z,35.18
2023-09-06T19:47:18.457Z,35.18
2023-09-06T19:49:49.682Z,35.16
2023-09-06T19:52:21.314Z,35.16
2023-09-06T19:55:00.210Z,35.16
2023-09-06T19:57:31.260Z,35.14
2023-09-06T20:00:02.509Z,35.15
2023-09-06T20:02:33.063Z,35.14
2023-09-06T20:05:04.407Z,35.14
2023-09-06T20:07:34.690Z,35.14
2023-09-06T20:10:07.659Z,35.13
2023-09-06T20:12:38.038Z,35.13
2023-09-06T20:15:10.372Z,35.13
2023-09-06T20:17:42.439Z,35.12
2023-09-06T20:20:15.560Z,35.10
2023-09-06T20:22:45.829Z,35.09
2023-09-06T20:25:18.364Z,35.09
2023-09-06T20:27:48.838Z,35.07
2023-09-06T20:30:19.701Z,35.07
2023-09-06T20:32:49.443Z,35.07
2023-09-06T20:35:20.312Z,35.07
2023-09-06T20:37:51.108Z,35.05
2023-09-06T20:40:26.308Z,35.05
2023-09-06T20:42:56.365Z,35.03
2023-09-06T20:45:28.782Z,35.02
2023-09-06T20:47:59.385Z,35.01
2023-09-06T20:50:30.661Z,35.01
2023-09-06T20:53:01.174Z,35.00
2023-09-06T20:55:36.859Z,35.00
2023-09-06T20:58:08.789Z,34.98
2023-09-06T21:00:39.721Z,34.97
2023-09-06T21:03:13.146Z,34.97
2023-09-06T21:05:43.856Z,34.96
2023-09-06T21:08:14.404Z,34.96
2023-09-06T21:10:47.884Z,34.96
2023-09-06T21:13:17.651Z,34.94
2023-09-06T21:15:49.351Z,34.94
2023-09-06T21:19:11.764Z,34.95
2023-09-06T21:25:28.848Z,34.88
2023-09-06T21:28:57.220Z,34.90
2023-09-06T21:32:05.081Z,34.90
2023-09-06T21:35:24.438Z,34.88
2023-09-06T21:37:54.161Z,34.87
2023-09-06T21:40:24.427Z,34.87
2023-09-06T21:43:10.751Z,34.87
2023-09-06T21:45:50.654Z,34.87
2023-09-06T21:48:22.414Z,34.86
2023-09-06T21:51:09.480Z,34.87
2023-09-06T21:53:40.079Z,34.86
2023-09-06T21:56:11.046Z,34.87
2023-09-06T21:58:49.926Z,34.86
2023-09-06T22:01:27.836Z,34.85
2023-09-06T22:03:59.468Z,34.85
2023-09-06T22:06:29.209Z,34.84
2023-09-06T22:08:59.498Z,34.84
2023-09-06T22:11:29.334Z,34.83
2023-09-06T22:13:59.628Z,34.83
2023-09-06T22:16:32.283Z,34.82
2023-09-06T22:19:02.793Z,34.81
2023-09-06T22:21:37.016Z,34.81
2023-09-06T22:24:08.621Z,34.80
2023-09-06T22:26:39.042Z,34.79
2023-09-06T22:29:09.313Z,34.79
2023-09-06T22:31:42.594Z,34.78
2023-09-06T22:34:13.206Z,34.75
2023-09-06T22:36:43.663Z,34.75
2023-09-06T22:39:13.469Z,34.75
2023-09-06T22:41:43.667Z,34.74
2023-09-06T22:44:13.926Z,34.73
2023-09-06T22:46:46.360Z,34.73
2023-09-06T22:49:16.086Z,34.72
2023-09-06T22:51:47.091Z,34.72
2023-09-06T22:54:17.546Z,34.71
2023-09-06T22:56:47.840Z,34.71
2023-09-06T22:59:18.239Z,34.70
2023-09-06T23:01:53.384Z,34.70
2023-09-06T23:04:23.197Z,34.69
2023-09-06T23:06:55.478Z,34.70
2023-09-06T23:09:25.237Z,34.69
2023-09-06T23:11:57.616Z,34.67
2023-09-06T23:14:28.729Z,34.67
2023-09-06T23:17:00.443Z,34.68
2023-09-06T23:19:34.333Z,34.66
2023-09-06T23:22:05.401Z,34.64
2023-09-06T23:24:37.257Z,34.64
2023-09-06T23:27:09.261Z,34.63
2023-09-06T23:29:45.669Z,34.62
2023-09-06T23:32:21.258Z,34.61
2023-09-06T23:34:54.678Z,34.59
2023-09-06T23:37:26.119Z,34.60
2023-09-06T23:39:57.988Z,34.58
2023-09-06T23:42:29.063Z,34.58
2023-09-06T23:44:58.903Z,34.57
2023-09-06T23:47:32.113Z,34.56
2023-09-06T23:50:02.724Z,34.55
2023-09-06T23:52:33.334Z,34.55
2023-09-06T23:55:03.119Z,34.55
2023-09-06T23:57:34.033Z,34.55
